Terminal Aerodrome Forecast
Issued by NWS

Home | Current Version | Previous Version | Text Only | Print | Product List | Glossary On
Versions: 1 2 3 4 5 6 7 8 9 10 11 12 13 14 15 16 17 18 19 20 21 22 23 24 25 26 27 28 29 30 31
000
FTUS46 KEKA 270544
TAFUKI
TAF
KUKI 270544Z 2706/2806 00000KT P6SM OVC025
     FM271200 32005KT P6SM SKC
     FM271800 33010KT P6SM SKC
     FM280000 32008G15KT P6SM SKC
     FM280300 34005KT P6SM SKC=

USA.gov is the U.S. government's official web portal to all federal, state and local government web resources and services.